Fontenelle, Wyoming
Current Conditions -  °F | °C
As of 9:55 PM on Friday 28 Nov 2014 (Local Time) from KFBR Reporting Station
Clear Clear  
Wind Chill: 38°   Ceiling: Unl
Heat Index: 46°   Visibility: 10mi
Dew Point: 12°   Wind: 17mph
Humidity: 26%   Direction: 230°SW
Pressure: 29.85"   Gusts: 22mph
Location:  41.8294°N, 110.31°W
Report Text: KFBR 290455Z AUTO 23015G19KT 10SM CLR 08/M11 A2985 RMK AO2 T00751110
Loading
Personal Weather Stations






























Interactive Weather Map New forecast layout! Learn more

10-Day Weather Forecast

Advertisements
Track Severe Weather on mobile